Accueil
METAR-TAF:

METAR-TAF

Aéroports :

Koweït, Koweït

Aéroport international de Koweït

latitude: 29-13N, longitude: 047-59E, altitude: 55 m

Observation

Le bulletin a été fait il y a 1 heure et 8 minutes, à 23:00 UTC
Vent 14 kt de nord/nord-ouest
Température 20°C
Humidité 43%
Pression 1014 hPa
Visibilité 10 km ou plus
pas de nuages en-dessous de 1500 mètres et pas de cumulonimbus.

METAR: OKBK 222300Z 34014KT CAVOK 20/07 Q1014 NOSIG

Heure: 03:08 (00:08 UTC)

Prévision

Le bulletin a été fait il y a 1 heure et 23 minutes, à 22:45 UTC
Prévision valable du 23 à 00 UTC au 24 à 06 UTC
Vent 8 kt de nord-ouest avec des rafales jusqu'à 18 kt
Visibilité: 7000 m
Temporairement
du 23 à 00 UTC au 23 à 06 UTC
Visibilité: 4000 m
Quelques nuages à une hauteur de 4000 ft

TAF: OKBK 222245Z 2300/2406 32008G18KT 7000 NSC TEMPO 2300/2306 4000 -RA/BLDU FEW040

Observations et prévisions météorologiques de plus de 4000 aéroports (messages METAR et TAF).

Les stations disponibles sont représentées par des disques jaunes et rouges sur la carte.

Passer la souris dessus pour voir le nom de la station.

Cliquer dessus pour voir les observations et prévisions météorologiques.

Pour changer de carte: cliquez sur les boutons verts avec une croix noire pour zoomer, sur le bouton vert avec un tiret pour effectuer un zoom arrière, ou sur les flèches vertes pour les cartes adjacentes.


METAR-TAF: